Time;durP1;ratioP1;P1;durP2;ratioP2;P2;SDS_P1;SDS_P2;PMS_P1;PMS_P2;Temp;Humidity;BMP_temperature;BMP_pressure;BME280_temperature;BME280_humidity;BME280_pressure;Samples;Min_cycle;Max_cycle;Signal;HPM_P1;HPM_P2
2023/02/04 00:00:48;;;;;;;13.15;6.18;;;;;;;0.92;100.00;100182.13;5006740;28;20076;-79
2023/02/04 00:03:15;;;;;;;9.68;5.70;;;;;;;1.00;100.00;100215.13;4999501;28;20081;-78
2023/02/04 00:05:41;;;;;;;10.85;6.47;;;;;;;1.19;100.00;100236.44;5000709;28;20482;-78
2023/02/04 00:08:07;;;;;;;10.98;5.65;;;;;;;-0.27;100.00;99984.38;4999762;28;20121;-77
2023/02/04 00:10:33;;;;;;;9.27;4.65;;;;;;;0.82;100.00;100149.94;5009278;28;20032;-78
2023/02/04 00:12:58;;;;;;;8.77;5.13;;;;;;;1.26;100.00;100218.63;4999711;28;20069;-76
2023/02/04 00:15:24;;;;;;;7.78;5.45;;;;;;;1.13;100.00;100198.38;5001963;28;20759;-77
2023/02/04 00:17:49;;;;;;;11.55;5.28;;;;;;;0.67;100.00;100097.75;5008417;28;20053;-78
2023/02/04 00:20:15;;;;;;;12.98;6.20;;;;;;;1.32;100.00;100214.50;4996637;28;20057;-76
2023/02/04 00:22:41;;;;;;;11.13;7.88;;;;;;;1.18;100.00;100170.97;5003165;28;20121;-79
2023/02/04 00:25:07;;;;;;;11.57;6.13;;;;;;;0.77;100.00;100086.91;5004871;28;20033;-79
2023/02/04 00:27:32;;;;;;;11.60;6.20;;;;;;;0.41;100.00;100043.50;5002849;28;20422;-82
2023/02/04 00:29:58;;;;;;;9.65;5.72;;;;;;;0.49;100.00;100055.00;4998794;28;20058;-77
2023/02/04 00:32:23;;;;;;;13.88;5.78;;;;;;;1.48;100.00;100193.50;5006474;28;20788;-77
2023/02/04 00:34:52;;;;;;;10.60;6.32;;;;;;;1.13;100.00;100132.91;5006852;28;20046;-76
2023/02/04 00:37:18;;;;;;;12.38;6.28;;;;;;;1.37;100.00;100187.09;4991928;28;20052;-75
2023/02/04 00:39:43;;;;;;;9.48;6.05;;;;;;;1.32;100.00;100155.91;5002730;28;20053;-77
2023/02/04 00:42:09;;;;;;;9.63;5.68;;;;;;;1.43;100.00;100179.56;5002710;28;20054;-79
2023/02/04 00:44:35;;;;;;;19.55;6.90;;;;;;;1.51;100.00;100178.09;5003203;28;20519;-77
2023/02/04 00:47:01;;;;;;;17.33;7.05;;;;;;;1.26;100.00;100127.28;4999351;28;21118;-77
2023/02/04 00:49:26;;;;;;;13.88;5.13;;;;;;;1.34;100.00;100195.63;5005961;28;20049;-77
2023/02/04 00:51:52;;;;;;;9.50;5.63;;;;;;;1.33;100.00;100168.00;4999051;28;20050;-78
2023/02/04 00:54:17;;;;;;;11.75;5.68;;;;;;;0.86;100.00;100061.38;5005808;28;20482;-77
2023/02/04 00:56:43;;;;;;;10.77;5.97;;;;;;;1.34;100.00;100137.91;5002477;28;20508;-78
2023/02/04 00:59:10;;;;;;;10.38;5.25;;;;;;;1.43;100.00;100159.75;5002251;28;20026;-77
2023/02/04 01:01:35;;;;;;;8.27;4.78;;;;;;;1.46;100.00;100157.25;5005229;28;20088;-76
2023/02/04 01:04:01;;;;;;;12.63;6.25;;;;;;;1.09;100.00;100090.56;5003110;28;20137;-76
2023/02/04 01:06:28;;;;;;;9.30;5.97;;;;;;;1.44;100.00;100134.75;4998961;28;20084;-76
2023/02/04 01:08:53;;;;;;;8.30;5.20;;;;;;;1.51;100.00;100147.06;5001007;28;20054;-76
2023/02/04 01:11:19;;;;;;;8.43;4.43;;;;;;;1.45;100.00;100127.06;4997624;28;20077;-75
2023/02/04 01:13:45;;;;;;;6.32;4.22;;;;;;;0.82;100.00;100005.31;5000383;28;20780;-76
2023/02/04 01:16:11;;;;;;;8.00;5.63;;;;;;;1.54;100.00;100118.69;5000607;28;20053;-78
2023/02/04 01:18:36;;;;;;;9.18;5.25;;;;;;;0.71;100.00;99983.44;5000939;28;20050;-81
2023/02/04 01:21:02;;;;;;;10.75;5.93;;;;;;;1.35;100.00;100073.31;5002255;28;20080;-79
2023/02/04 01:23:28;;;;;;;7.65;5.38;;;;;;;1.55;100.00;100101.50;5002050;28;20141;-76
2023/02/04 01:25:53;;;;;;;10.10;4.88;;;;;;;0.83;100.00;99983.81;5005982;28;20038;-76
2023/02/04 01:28:18;;;;;;;9.55;6.22;;;;;;;0.94;100.00;100010.00;4999511;28;20046;-77
2023/02/04 01:30:44;;;;;;;9.25;5.72;;;;;;;0.76;100.00;99946.59;4994291;28;20055;-78
2023/02/04 01:33:09;;;;;;;11.40;5.72;;;;;;;1.45;100.00;100062.44;5002981;28;20050;-76
2023/02/04 01:35:35;;;;;;;19.52;7.40;;;;;;;0.62;100.00;99935.81;4999737;28;20065;-78
2023/02/04 01:38:00;;;;;;;9.52;4.47;;;;;;;1.54;100.00;100064.41;4995748;28;20038;-78
2023/02/04 01:40:26;;;;;;;11.55;5.63;;;;;;;1.43;100.00;100058.94;5005367;28;20044;-76
2023/02/04 01:42:52;;;;;;;7.70;5.13;;;;;;;1.35;100.00;100062.09;5002451;28;20049;-76
2023/02/04 01:45:18;;;;;;;7.45;5.05;;;;;;;1.29;100.00;100016.28;5004645;28;20049;-78
2023/02/04 01:47:45;;;;;;;6.80;4.68;;;;;;;1.45;100.00;100043.44;5000158;28;20398;-78
2023/02/04 01:50:14;;;;;;;8.98;5.63;;;;;;;1.33;100.00;100024.97;5002281;28;20067;-79
2023/02/04 01:52:40;;;;;;;13.38;6.00;;;;;;;1.36;100.00;100036.31;5002761;28;20033;-78
2023/02/04 01:55:18;;;;;;;7.13;4.82;;;;;;;0.70;100.00;99875.81;4999120;28;20077;-76
2023/02/04 01:57:45;;;;;;;10.18;5.35;;;;;;;0.77;100.00;99886.38;4996665;28;20043;-77
2023/02/04 02:00:17;;;;;;;12.18;5.85;;;;;;;0.59;100.00;99867.75;5000135;28;20189;-76
2023/02/04 02:02:45;;;;;;;10.23;6.65;;;;;;;1.27;100.00;99980.03;4998412;28;20049;-75
2023/02/04 02:05:16;;;;;;;10.52;6.22;;;;;;;1.41;100.00;99974.41;4998744;28;20048;-75
2023/02/04 02:07:42;;;;;;;10.60;5.50;;;;;;;0.65;100.00;99831.75;4998050;28;20112;-75
2023/02/04 02:10:10;;;;;;;8.23;4.57;;;;;;;1.06;100.00;99886.38;5002541;28;20949;-76
2023/02/04 02:12:37;;;;;;;15.07;8.10;;;;;;;1.45;100.00;99953.88;5002939;28;20077;-77
2023/02/04 02:15:03;;;;;;;9.15;5.88;;;;;;;0.29;100.00;99775.63;5002799;28;20659;-77
2023/02/04 02:17:28;;;;;;;11.52;4.13;;;;;;;1.55;100.00;99962.75;5001151;28;20046;-78
2023/02/04 02:19:54;;;;;;;9.60;4.85;;;;;;;0.82;100.00;99824.56;5006683;28;20029;-77
2023/02/04 02:22:35;;;;;;;14.55;5.53;;;;;;;1.37;100.00;99921.72;5005538;28;20077;-78
2023/02/04 02:25:01;;;;;;;7.60;4.20;;;;;;;0.80;100.00;99823.63;5002168;28;20779;-77
2023/02/04 02:27:26;;;;;;;10.80;5.93;;;;;;;0.75;100.00;99792.50;5005027;28;20046;-76
2023/02/04 02:29:52;;;;;;;10.02;5.45;;;;;;;1.54;100.00;99927.38;5002971;28;20533;-77
2023/02/04 02:32:19;;;;;;;7.25;5.38;;;;;;;1.25;100.00;99862.81;5001712;28;20137;-79
2023/02/04 02:34:45;;;;;;;8.90;5.60;;;;;;;0.52;100.00;99716.97;4997341;28;20065;-78
2023/02/04 02:37:11;;;;;;;9.35;6.20;;;;;;;0.91;100.00;99778.31;4998025;28;20061;-80
2023/02/04 02:39:39;;;;;;;5.80;4.10;;;;;;;1.13;100.00;99805.63;4996851;28;20051;-78
2023/02/04 02:42:05;;;;;;;8.82;5.72;;;;;;;1.38;100.00;99845.97;4998886;28;20046;-77
2023/02/04 02:44:31;;;;;;;7.95;5.75;;;;;;;1.44;100.00;99856.44;5005370;28;20057;-75
2023/02/04 02:46:57;;;;;;;8.70;4.88;;;;;;;0.43;100.00;99661.63;5001826;28;20037;-78
2023/02/04 02:49:23;;;;;;;8.65;5.13;;;;;;;1.54;100.00;99823.09;4997848;28;20046;-78
2023/02/04 02:51:48;;;;;;;8.52;4.93;;;;;;;0.89;100.00;99711.94;5000701;28;20603;-76
2023/02/04 02:54:30;;;;;;;11.55;6.20;;;;;;;0.64;100.00;99659.66;5002785;28;20096;-77
2023/02/04 02:56:56;;;;;;;10.95;5.57;;;;;;;1.48;100.00;99791.09;4999469;28;20050;-75
2023/02/04 02:59:23;;;;;;;8.48;5.53;;;;;;;1.44;100.00;99784.06;4993127;28;20078;-76
2023/02/04 03:01:56;;;;;;;8.38;6.15;;;;;;;1.43;100.00;99771.13;5007962;28;20036;-77
2023/02/04 03:04:24;;;;;;;18.42;5.10;;;;;;;0.71;100.00;99650.38;5007101;28;20054;-77
2023/02/04 03:06:50;;;;;;;8.68;4.93;;;;;;;1.30;100.00;99776.78;5003814;28;20128;-77
2023/02/04 03:09:16;;;;;;;9.88;4.93;;;;;;;0.53;100.00;99655.88;4995652;28;20046;-77
2023/02/04 03:11:42;;;;;;;6.85;3.90;;;;;;;0.98;100.00;99730.28;4998410;28;20821;-77
2023/02/04 03:14:08;;;;;;;7.72;4.88;;;;;;;0.19;100.00;99585.28;5005535;28;20109;-78
2023/02/04 03:16:36;;;;;;;9.48;4.03;;;;;;;1.02;100.00;99676.16;5001067;28;20034;-78
2023/02/04 03:19:04;;;;;;;7.50;4.30;;;;;;;0.25;100.00;99551.03;5006048;28;20046;-76
2023/02/04 03:21:30;;;;;;;7.75;4.30;;;;;;;1.22;100.00;99699.06;5003463;28;20218;-77
2023/02/04 03:23:55;;;;;;;7.10;4.88;;;;;;;1.05;100.00;99667.63;5007213;28;20518;-78
2023/02/04 03:26:22;;;;;;;8.32;4.10;;;;;;;0.45;100.00;99543.84;5008040;28;20054;-76
2023/02/04 03:28:48;;;;;;;7.38;5.15;;;;;;;1.07;100.00;99690.91;5004225;28;20092;-77
2023/02/04 03:31:13;;;;;;;8.15;5.30;;;;;;;1.31;100.00;99675.16;5007274;28;20046;-76
2023/02/04 03:33:39;;;;;;;6.18;4.03;;;;;;;0.32;100.00;99514.25;5009289;28;20061;-76
2023/02/04 03:36:06;;;;;;;5.97;4.60;;;;;;;0.54;100.00;99533.75;4999243;28;20529;-78
2023/02/04 03:38:33;;;;;;;9.40;5.15;;;;;;;1.13;100.00;99634.25;5001147;28;20081;-77
2023/02/04 03:40:58;;;;;;;11.07;5.82;;;;;;;1.11;100.00;99615.25;5001918;28;20038;-76
2023/02/04 03:43:24;;;;;;;7.55;5.30;;;;;;;0.65;100.00;99516.81;5008302;28;20038;-76
2023/02/04 03:45:49;;;;;;;7.90;5.35;;;;;;;0.77;100.00;99567.91;5001315;28;20050;-79
2023/02/04 03:48:15;;;;;;;9.43;6.03;;;;;;;0.73;100.00;99541.13;5018908;28;20773;-76
2023/02/04 03:50:40;;;;;;;6.57;5.35;;;;;;;1.45;100.00;99646.25;5003386;28;20042;-79
2023/02/04 03:53:06;;;;;;;9.75;6.88;;;;;;;1.19;100.00;99617.16;5000032;28;20117;-77
2023/02/04 03:55:32;;;;;;;9.27;5.63;;;;;;;0.67;100.00;99512.56;5001203;28;20025;-76
2023/02/04 03:57:57;;;;;;;10.55;6.22;;;;;;;0.64;100.00;99491.84;5008555;28;20559;-77
2023/02/04 04:00:23;;;;;;;9.43;5.85;;;;;;;1.40;100.00;99640.06;5005253;28;20054;-77
2023/02/04 04:02:48;;;;;;;7.70;6.10;;;;;;;0.47;100.00;99478.53;5001527;28;20078;-78
2023/02/04 04:05:14;;;;;;;8.10;5.55;;;;;;;0.99;100.00;99526.28;4995595;28;20501;-78
2023/02/04 04:07:39;;;;;;;10.82;7.10;;;;;;;0.69;100.00;99484.22;5001478;28;20502;-78
2023/02/04 04:10:05;;;;;;;9.63;5.55;;;;;;;1.38;100.00;99594.34;4999591;28;20050;-78
2023/02/04 04:12:31;;;;;;;7.50;5.13;;;;;;;0.61;100.00;99481.47;5000177;28;20042;-79
2023/02/04 04:14:56;;;;;;;12.98;7.65;;;;;;;0.69;100.00;99504.88;5001296;28;20047;-77
2023/02/04 04:17:22;;;;;;;9.77;7.72;;;;;;;1.38;100.00;99604.69;5001412;28;20509;-78
2023/02/04 04:19:48;;;;;;;10.10;7.00;;;;;;;1.26;100.00;99567.41;5001053;28;20041;-77
2023/02/04 04:22:14;;;;;;;13.38;7.50;;;;;;;1.33;100.00;99596.81;4997612;28;20046;-78
2023/02/04 04:24:40;;;;;;;11.20;6.80;;;;;;;1.33;100.00;99593.38;5000240;28;20061;-78
2023/02/04 04:27:06;;;;;;;9.48;5.47;;;;;;;1.42;100.00;99594.47;5005967;28;20042;-76
2023/02/04 04:29:31;;;;;;;10.25;6.88;;;;;;;0.96;100.00;99505.56;4999703;28;20046;-76
2023/02/04 04:31:56;;;;;;;11.27;7.22;;;;;;;1.54;100.00;99582.66;5003369;28;20096;-76
2023/02/04 04:34:22;;;;;;;10.18;6.95;;;;;;;0.76;100.00;99461.16;5004420;28;20108;-79
2023/02/04 04:36:47;;;;;;;11.68;7.63;;;;;;;1.54;100.00;99570.59;4999071;28;20049;-77
2023/02/04 04:39:13;;;;;;;9.95;6.35;;;;;;;1.50;100.00;99563.66;5002442;28;20486;-76
2023/02/04 04:41:38;;;;;;;11.02;6.38;;;;;;;0.92;100.00;99462.41;5003043;28;20407;-78
2023/02/04 04:44:04;;;;;;;7.90;5.43;;;;;;;0.79;100.00;99473.28;5002179;28;20122;-79
2023/02/04 04:46:29;;;;;;;9.70;7.15;;;;;;;1.52;100.00;99598.13;5004595;28;20547;-75
2023/02/04 04:48:55;;;;;;;11.63;7.20;;;;;;;0.54;100.00;99431.41;4993667;28;20046;-78
2023/02/04 04:51:20;;;;;;;12.63;6.57;;;;;;;1.28;100.00;99559.66;4998564;28;20422;-76
2023/02/04 04:53:46;;;;;;;15.45;7.57;;;;;;;1.20;100.00;99543.13;4998511;28;20057;-77
2023/02/04 04:56:12;;;;;;;11.55;7.75;;;;;;;0.56;100.00;99403.03;4997438;28;20397;-78
2023/02/04 04:58:37;;;;;;;11.50;6.43;;;;;;;0.68;100.00;99443.75;5004551;28;20038;-76
2023/02/04 05:01:03;;;;;;;11.50;8.23;;;;;;;1.53;100.00;99568.00;4999816;28;20038;-79
2023/02/04 05:03:28;;;;;;;11.95;8.15;;;;;;;1.65;100.00;99586.38;5002673;28;20046;-79
2023/02/04 05:05:54;;;;;;;10.60;6.40;;;;;;;1.57;100.00;99552.59;5005005;28;20649;-77
2023/02/04 05:08:19;;;;;;;11.80;7.00;;;;;;;1.71;100.00;99565.84;4998970;28;20154;-80
2023/02/04 05:10:45;;;;;;;12.68;6.93;;;;;;;1.75;100.00;99571.94;5001002;28;20029;-78
2023/02/04 05:13:12;;;;;;;16.85;6.85;;;;;;;1.69;100.00;99586.47;5002076;28;20073;-78
2023/02/04 05:15:38;;;;;;;13.05;8.43;;;;;;;1.81;100.00;99580.69;4996682;28;20069;-78
2023/02/04 05:18:04;;;;;;;10.13;7.47;;;;;;;1.09;100.00;99457.63;5000194;28;20062;-77
2023/02/04 05:20:29;;;;;;;9.32;7.30;;;;;;;1.84;100.00;99587.66;5001136;28;20056;-78
2023/02/04 05:22:55;;;;;;;13.25;7.40;;;;;;;1.79;100.00;99573.75;5002271;28;20485;-78
2023/02/04 05:25:21;;;;;;;10.77;7.68;;;;;;;1.22;100.00;99446.72;5000155;28;20108;-78
2023/02/04 05:27:47;;;;;;;18.45;8.30;;;;;;;1.87;100.00;99567.00;5001207;28;20061;-76
2023/02/04 05:30:13;;;;;;;12.02;8.40;;;;;;;1.20;100.00;99432.03;5005677;28;20054;-78
2023/02/04 05:32:39;;;;;;;7.68;5.90;;;;;;;1.92;100.00;99569.69;4999087;28;20571;-79
2023/02/04 05:35:05;;;;;;;12.57;7.97;;;;;;;2.02;100.00;99569.06;5006687;28;20133;-79
2023/02/04 05:37:31;;;;;;;11.98;7.47;;;;;;;1.83;100.00;99526.44;4997584;28;20119;-77
2023/02/04 05:39:57;;;;;;;9.02;6.93;;;;;;;2.03;100.00;99584.59;5003452;28;20115;-78
2023/02/04 05:42:22;;;;;;;14.40;7.82;;;;;;;1.92;100.00;99596.47;4996619;28;20038;-77
2023/02/04 05:44:48;;;;;;;12.38;7.57;;;;;;;2.01;100.00;99570.75;4999913;28;20545;-77
2023/02/04 05:47:14;;;;;;;18.50;8.50;;;;;;;2.06;100.00;99587.28;4998465;28;20050;-78
2023/02/04 05:49:39;;;;;;;11.90;7.82;;;;;;;2.15;100.00;99560.69;4999797;28;20038;-78
2023/02/04 05:52:05;;;;;;;10.27;8.13;;;;;;;1.46;100.00;99443.78;5003772;28;20410;-80
2023/02/04 05:54:30;;;;;;;9.85;6.28;;;;;;;1.21;100.00;99432.03;5000725;28;20054;-83
2023/02/04 05:56:56;;;;;;;12.13;7.43;;;;;;;1.42;100.00;99444.56;5016883;28;20061;-82
2023/02/04 05:59:21;;;;;;;12.85;7.43;;;;;;;2.23;100.00;99592.78;5000943;28;20045;-82
2023/02/04 06:01:47;;;;;;;9.85;7.68;;;;;;;1.72;100.00;99463.25;5006049;28;20030;-80
2023/02/04 06:04:15;;;;;;;14.23;8.23;;;;;;;1.75;100.00;99471.06;5001290;28;20103;-81
2023/02/04 06:06:41;;;;;;;11.63;7.60;;;;;;;1.97;100.00;99490.50;4998963;28;20136;-82
2023/02/04 06:09:06;;;;;;;11.40;7.28;;;;;;;1.78;100.00;99468.53;4996225;28;20548;-80
2023/02/04 06:11:32;;;;;;;10.85;6.78;;;;;;;2.44;100.00;99579.38;4997624;28;20054;-82
2023/02/04 06:13:57;;;;;;;12.63;7.47;;;;;;;1.42;100.00;99448.84;4996114;28;20022;-81
2023/02/04 06:16:23;;;;;;;13.80;7.15;;;;;;;2.26;100.00;99541.06;4999512;28;20058;-80
2023/02/04 06:18:48;;;;;;;11.93;7.43;;;;;;;2.57;100.00;99590.84;5002605;28;20088;-83
2023/02/04 06:21:14;;;;;;;14.35;8.25;;;;;;;1.87;100.00;99477.38;4997123;28;20057;-81
2023/02/04 06:23:39;;;;;;;10.63;7.05;;;;;;;1.81;100.00;99453.97;4999292;28;20052;-83
2023/02/04 06:26:04;;;;;;;14.10;8.70;;;;;;;1.78;100.00;99490.13;5000129;28;20030;-81
2023/02/04 06:28:30;;;;;;;10.63;6.38;;;;;;;1.76;100.00;99457.31;5001579;28;20041;-82
2023/02/04 06:30:55;;;;;;;13.88;7.70;;;;;;;2.65;100.00;99624.66;4993900;28;20037;-76
2023/02/04 06:33:22;;;;;;;12.73;7.50;;;;;;;2.69;100.00;99608.31;4992949;28;20054;-80
2023/02/04 06:35:48;;;;;;;9.82;6.85;;;;;;;1.83;100.00;99485.91;4988975;28;20051;-78
2023/02/04 06:38:14;;;;;;;11.77;8.35;;;;;;;1.88;100.00;99491.19;4992018;28;20446;-78
2023/02/04 06:40:39;;;;;;;9.43;6.38;;;;;;;1.92;100.00;99487.81;4995812;28;20037;-77
2023/02/04 06:43:05;;;;;;;10.95;7.32;;;;;;;1.83;100.00;99449.69;4996241;28;20041;-80
2023/02/04 06:45:30;;;;;;;10.85;6.55;;;;;;;2.57;100.00;99584.78;5000916;28;20527;-77
2023/02/04 06:47:56;;;;;;;11.60;6.95;;;;;;;2.73;100.00;99612.72;4998333;28;20057;-77
2023/02/04 06:50:21;;;;;;;12.45;7.18;;;;;;;2.99;100.00;99617.50;5001056;28;20046;-79
2023/02/04 06:52:47;;;;;;;9.98;5.80;;;;;;;2.89;100.00;99632.03;5003553;28;20034;-76
2023/02/04 06:55:14;;;;;;;11.90;8.18;;;;;;;2.22;100.00;99533.22;4996668;28;20050;-76
2023/02/04 06:57:39;;;;;;;12.15;8.85;;;;;;;2.77;100.00;99622.31;4998960;28;20134;-77
2023/02/04 07:00:06;;;;;;;13.32;9.00;;;;;;;2.95;100.00;99655.47;5003742;28;20647;-76
2023/02/04 07:02:32;;;;;;;15.77;8.55;;;;;;;1.98;100.00;99506.03;5003714;28;20042;-75
2023/02/04 07:04:59;;;;;;;16.63;10.55;;;;;;;2.48;100.00;99596.75;4998648;28;20034;-78
2023/02/04 07:07:25;;;;;;;17.13;10.73;;;;;;;2.82;100.00;99653.47;5003597;28;20046;-80
2023/02/04 07:09:50;;;;;;;17.98;12.02;;;;;;;2.67;100.00;99648.84;5002429;28;20104;-79
2023/02/04 07:12:16;;;;;;;17.42;11.38;;;;;;;2.01;100.00;99559.53;5009349;28;20038;-78
2023/02/04 07:14:41;;;;;;;16.27;9.10;;;;;;;2.65;100.00;99643.66;5003294;28;20069;-77
2023/02/04 07:17:07;;;;;;;15.98;11.63;;;;;;;2.61;100.00;99644.44;4999861;28;20132;-77
2023/02/04 07:19:34;;;;;;;19.30;12.02;;;;;;;2.47;100.00;99643.31;5001239;28;20129;-78
2023/02/04 07:21:59;;;;;;;20.33;13.05;;;;;;;2.40;100.00;99683.72;5001384;28;20054;-79
2023/02/04 07:24:25;;;;;;;17.20;11.00;;;;;;;2.49;100.00;99678.75;5001691;28;20054;-80
2023/02/04 07:26:50;;;;;;;21.55;12.20;;;;;;;2.59;100.00;99671.16;5002599;28;20544;-78
2023/02/04 07:29:17;;;;;;;15.98;11.25;;;;;;;2.20;100.00;99621.19;5006044;28;20057;-78
2023/02/04 07:31:44;;;;;;;16.17;11.10;;;;;;;2.38;100.00;99677.63;5006526;28;20050;-78
2023/02/04 07:34:14;;;;;;;20.60;11.55;;;;;;;1.90;100.00;99561.91;5006220;28;20114;-78
2023/02/04 07:36:40;;;;;;;21.50;11.27;;;;;;;2.24;100.00;99619.53;4996265;28;20145;-76
2023/02/04 07:39:06;;;;;;;14.98;9.85;;;;;;;1.99;100.00;99579.31;4993742;28;20626;-78
2023/02/04 07:41:32;;;;;;;23.23;10.75;;;;;;;2.46;100.00;99668.31;5009625;28;20049;-78
2023/02/04 07:43:57;;;;;;;18.60;11.32;;;;;;;2.44;100.00;99654.47;4999379;28;20038;-76
2023/02/04 07:46:23;;;;;;;17.13;11.20;;;;;;;1.77;100.00;99557.31;4992377;28;20599;-78
2023/02/04 07:48:48;;;;;;;17.20;10.82;;;;;;;2.13;100.00;99618.44;4997996;28;20557;-79
2023/02/04 07:51:14;;;;;;;21.65;9.93;;;;;;;1.86;100.00;99579.06;5021134;28;20136;-78
2023/02/04 07:53:39;;;;;;;20.30;10.80;;;;;;;2.06;100.00;99607.06;5002068;28;20140;-77
2023/02/04 07:56:05;;;;;;;21.73;12.35;;;;;;;1.94;100.00;99578.38;5005072;28;20026;-77
2023/02/04 07:58:30;;;;;;;19.52;11.65;;;;;;;1.73;100.00;99547.75;5017857;28;20462;-76
2023/02/04 08:00:56;;;;;;;18.60;11.85;;;;;;;1.79;100.00;99569.44;4996372;28;20120;-77
2023/02/04 08:03:21;;;;;;;17.60;11.40;;;;;;;1.56;100.00;99583.56;5001894;28;20078;-79
2023/02/04 08:05:47;;;;;;;17.05;10.10;;;;;;;2.58;100.00;99695.31;5003741;28;20405;-79
2023/02/04 08:08:12;;;;;;;22.98;12.05;;;;;;;2.54;100.00;99703.00;4993545;28;20116;-78
2023/02/04 08:10:38;;;;;;;19.98;10.65;;;;;;;2.58;100.00;99685.81;5008482;28;20026;-80
2023/02/04 08:13:03;;;;;;;23.80;10.93;;;;;;;2.57;100.00;99697.00;5003616;28;20096;-77
2023/02/04 08:15:29;;;;;;;17.52;12.88;;;;;;;2.29;100.00;99657.63;5002983;28;20049;-77
2023/02/04 08:17:54;;;;;;;19.65;10.23;;;;;;;2.87;100.00;99717.47;5005500;28;20053;-77
2023/02/04 08:20:20;;;;;;;16.77;11.55;;;;;;;2.28;100.00;99622.22;4993636;28;20745;-77
2023/02/04 08:22:45;;;;;;;19.80;10.13;;;;;;;2.09;100.00;99592.50;5008697;28;20752;-80
2023/02/04 08:25:11;;;;;;;17.60;11.23;;;;;;;2.98;100.00;99751.38;4999320;28;20051;-76
2023/02/04 08:27:37;;;;;;;15.15;10.77;;;;;;;2.19;100.00;99616.84;4997931;28;20054;-78
2023/02/04 08:30:03;;;;;;;19.50;10.55;;;;;;;3.02;100.00;99739.34;5000636;28;20050;-78
2023/02/04 08:32:30;;;;;;;20.73;11.07;;;;;;;2.33;100.00;99649.06;5009139;28;20046;-76
2023/02/04 08:34:56;;;;;;;15.73;11.25;;;;;;;2.88;100.00;99721.84;5003336;28;20112;-77
2023/02/04 08:37:22;;;;;;;19.20;10.07;;;;;;;2.20;100.00;99670.38;5008832;28;20123;-76
2023/02/04 08:39:47;;;;;;;20.15;12.32;;;;;;;2.22;100.00;99657.44;4999168;28;20038;-76
2023/02/04 08:42:14;;;;;;;20.27;14.10;;;;;;;2.80;100.00;99805.41;5006698;28;20049;-77
2023/02/04 08:44:41;;;;;;;17.13;11.68;;;;;;;2.69;100.00;99751.69;5000193;28;20057;-77
2023/02/04 08:47:06;;;;;;;21.65;13.25;;;;;;;3.14;100.00;99831.19;5001431;28;20062;-77
2023/02/04 08:49:32;;;;;;;23.60;12.15;;;;;;;1.91;100.00;99610.22;5001326;28;20120;-78
2023/02/04 08:51:57;;;;;;;19.73;13.65;;;;;;;3.34;100.00;99844.53;5002070;28;20769;-78
2023/02/04 08:54:24;;;;;;;18.25;11.63;;;;;;;3.40;100.00;99849.00;5004139;28;20052;-79
2023/02/04 08:56:50;;;;;;;23.88;13.20;;;;;;;3.17;100.00;99851.97;4999489;28;20536;-77
2023/02/04 08:59:16;;;;;;;23.48;12.82;;;;;;;2.73;100.00;99838.94;5001108;28;20042;-78
2023/02/04 09:01:41;;;;;;;18.17;11.98;;;;;;;2.76;100.00;99773.38;5005615;28;20037;-77
2023/02/04 09:04:07;;;;;;;18.00;11.82;;;;;;;2.91;100.00;99791.84;5005103;28;20117;-78
2023/02/04 09:06:32;;;;;;;15.55;11.60;;;;;;;3.58;100.00;99910.72;5005245;28;20133;-79
2023/02/04 09:08:58;;;;;;;17.27;10.50;;;;;;;3.45;100.00;99882.81;5018929;28;20049;-80
2023/02/04 09:11:24;;;;;;;15.60;10.68;;;;;;;3.44;100.00;99894.00;5004143;28;20127;-78
2023/02/04 09:13:49;;;;;;;14.43;8.88;;;;;;;2.96;100.00;99812.66;5000873;28;20034;-78
2023/02/04 09:16:16;;;;;;;13.65;8.57;;;;;;;3.66;100.00;99913.47;5000804;28;20046;-80
2023/02/04 09:18:42;;;;;;;13.48;9.18;;;;;;;3.71;100.00;99942.97;4995076;28;20051;-77
2023/02/04 09:21:07;;;;;;;13.02;10.23;;;;;;;3.67;100.00;99925.59;5000021;28;20046;-76
2023/02/04 09:23:33;;;;;;;28.50;10.43;;;;;;;3.69;100.00;99942.94;4992199;28;20065;-78
2023/02/04 09:26:00;;;;;;;14.40;10.73;;;;;;;3.14;100.00;99854.53;5000379;28;20113;-75
2023/02/04 09:28:25;;;;;;;17.27;10.57;;;;;;;3.48;100.00;99901.00;5000290;28;20121;-78
2023/02/04 09:30:51;;;;;;;19.30;11.00;;;;;;;3.32;100.00;99869.56;4993162;28;20176;-79
2023/02/04 09:33:17;;;;;;;22.13;11.82;;;;;;;3.72;100.00;99909.28;4990524;28;20038;-78
2023/02/04 09:35:43;;;;;;;17.80;11.43;;;;;;;3.78;100.00;99963.00;4986489;28;20281;-79
2023/02/04 09:38:09;;;;;;;19.17;11.45;;;;;;;3.23;100.00;99829.63;4988830;28;20488;-80
2023/02/04 09:40:40;;;;;;;19.48;11.80;;;;;;;4.05;100.00;99965.28;4988631;28;20038;-76
2023/02/04 09:43:11;;;;;;;19.00;11.30;;;;;;;3.33;100.00;99844.53;4990044;28;21076;-77
2023/02/04 09:45:37;;;;;;;19.42;13.38;;;;;;;3.48;100.00;99829.25;4999765;28;20058;-76
2023/02/04 09:48:05;;;;;;;19.40;11.48;;;;;;;3.96;100.00;99947.81;5003771;28;20107;-79
2023/02/04 09:50:31;;;;;;;22.70;12.65;;;;;;;4.02;100.00;99966.06;4994023;28;20402;-77
2023/02/04 09:53:00;;;;;;;19.45;11.15;;;;;;;4.10;100.00;99936.81;5001109;28;20410;-77
2023/02/04 09:55:30;;;;;;;16.02;11.60;;;;;;;3.75;100.00;99875.59;5005198;28;20486;-76
2023/02/04 09:57:56;;;;;;;16.63;11.90;;;;;;;3.68;100.00;99868.56;5006616;28;20065;-76
2023/02/04 10:00:24;;;;;;;23.83;14.57;;;;;;;3.67;100.00;99863.31;5005679;28;20504;-77
2023/02/04 10:02:50;;;;;;;18.17;11.80;;;;;;;4.32;100.00;99997.78;5007001;28;20115;-79
2023/02/04 10:05:26;;;;;;;24.60;13.35;;;;;;;4.13;100.00;100002.63;5005595;28;20398;-80
2023/02/04 10:07:52;;;;;;;22.00;14.38;;;;;;;3.94;100.00;99965.06;5005214;28;20037;-77
2023/02/04 10:10:22;;;;;;;23.92;15.80;;;;;;;3.49;100.00;99889.78;4999375;28;20062;-78
2023/02/04 10:12:51;;;;;;;20.60;13.43;;;;;;;3.82;100.00;100016.72;4998078;28;20077;-81
2023/02/04 10:15:19;;;;;;;26.15;18.50;;;;;;;2.36;100.00;99903.66;4996469;28;20061;-80
2023/02/04 10:17:47;;;;;;;33.40;18.75;;;;;;;3.16;100.00;99940.97;5003879;28;20061;-77
2023/02/04 10:20:19;;;;;;;23.77;15.07;;;;;;;2.79;100.00;99865.84;4999716;28;20026;-75
2023/02/04 10:22:50;;;;;;;36.55;16.95;;;;;;;3.68;100.00;100007.78;5004789;28;20061;-79
2023/02/04 10:25:21;;;;;;;28.27;17.42;;;;;;;2.98;100.00;99963.03;4999661;28;20061;-80
2023/02/04 10:27:56;;;;;;;25.15;17.23;;;;;;;2.62;100.00;99799.00;4997209;28;21362;-78
2023/02/04 10:30:34;;;;;;;21.17;15.68;;;;;;;4.07;100.00;99991.25;5009875;28;20066;-78
2023/02/04 10:33:14;;;;;;;18.58;13.15;;;;;;;3.35;100.00;99868.78;5004890;28;20456;-76
2023/02/04 10:35:45;;;;;;;27.00;15.40;;;;;;;3.95;100.00;99937.38;5002340;28;20125;-78
2023/02/04 10:38:10;;;;;;;25.08;15.40;;;;;;;3.86;100.00;99938.06;4989397;28;20042;-78
2023/02/04 10:40:36;;;;;;;29.95;20.48;;;;;;;4.29;100.00;100002.94;5000077;28;20901;-75
2023/02/04 10:43:10;;;;;;;63.58;21.00;;;;;;;4.44;100.00;99998.00;4996447;28;20038;-75
2023/02/04 10:45:37;;;;;;;25.65;14.90;;;;;;;4.47;100.00;99979.88;4995318;28;20050;-78
2023/02/04 10:48:03;;;;;;;30.75;14.60;;;;;;;3.95;100.00;99869.91;4996403;28;20058;-77
2023/02/04 10:50:29;;;;;;;29.73;16.73;;;;;;;4.51;100.00;99958.31;4991424;28;20061;-76
2023/02/04 10:55:43;;;;;;;23.02;16.13;;;;;;;4.40;100.00;99973.72;4993490;28;20050;-75
2023/02/04 10:58:12;;;;;;;22.15;12.10;;;;;;;4.85;100.00;99975.34;5000952;28;20053;-73
2023/02/04 11:00:37;;;;;;;23.95;15.20;;;;;;;4.32;100.00;99852.34;4997148;28;20054;-75
2023/02/04 11:03:10;;;;;;;18.35;12.55;;;;;;;4.53;100.00;99976.53;4998363;28;20053;-75
2023/02/04 11:05:36;;;;;;;18.48;10.50;;;;;;;4.58;100.00;99973.13;4999124;28;20076;-75
2023/02/04 11:08:17;;;;;;;19.10;10.52;;;;;;;4.83;100.00;99964.03;4995810;28;20054;-75
2023/02/04 11:10:42;;;;;;;18.35;10.73;;;;;;;4.22;100.00;99963.00;5001147;28;20030;-75
2023/02/04 11:13:21;;;;;;;19.90;12.02;;;;;;;3.95;100.00;99906.22;5003563;28;20046;-76
2023/02/04 11:15:49;;;;;;;18.58;11.05;;;;;;;4.41;100.00;99972.00;4995699;28;20061;-75
2023/02/04 11:18:20;;;;;;;23.13;11.88;;;;;;;4.37;100.00;99972.78;5000391;28;20057;-75
2023/02/04 11:20:51;;;;;;;18.77;13.57;;;;;;;3.63;100.00;99846.84;4996694;28;20042;-76
2023/02/04 11:23:26;;;;;;;22.80;11.27;;;;;;;4.38;100.00;99991.00;5000840;28;20034;-73